Time;durP1;ratioP1;P1;durP2;ratioP2;P2;SDS_P1;SDS_P2;PMS_P1;PMS_P2;Temp;Humidity;BMP_temperature;BMP_pressure;BME280_temperature;BME280_humidity;BME280_pressure;Samples;Min_cycle;Max_cycle;Signal;HPM_P1;HPM_P2
2021/03/27 00:00:08;;;;;;;12.98;7.03;;;12.80;57.80;;;;;;5043487;28;20473;-71
2021/03/27 00:02:44;;;;;;;16.33;6.25;;;12.70;57.90;;;;;;5048827;28;20495;-70
2021/03/27 00:05:18;;;;;;;11.57;6.40;;;12.60;58.20;;;;;;5044393;28;20088;-70
2021/03/27 00:08:04;;;;;;;11.07;6.45;;;12.50;58.40;;;;;;5046230;28;20139;-71
2021/03/27 00:10:45;;;;;;;12.82;7.00;;;12.50;58.50;;;;;;5050013;28;20179;-70
2021/03/27 00:13:33;;;;;;;11.85;6.30;;;12.40;58.70;;;;;;5048325;28;20060;-71
2021/03/27 00:16:20;;;;;;;14.65;6.85;;;12.30;59.00;;;;;;5047724;28;20477;-70
2021/03/27 00:19:03;;;;;;;12.80;7.32;;;12.20;59.40;;;;;;5050631;28;20073;-70
2021/03/27 00:21:33;;;;;;;15.25;7.10;;;12.20;59.40;;;;;;5047562;28;20128;-70
2021/03/27 00:24:12;;;;;;;15.50;7.22;;;12.20;59.40;;;;;;5050288;28;20044;-71
2021/03/27 00:26:56;;;;;;;12.25;6.70;;;12.20;59.70;;;;;;5049058;28;20144;-70
2021/03/27 00:29:33;;;;;;;12.90;6.78;;;12.20;59.60;;;;;;5046274;28;20076;-71
2021/03/27 00:32:05;;;;;;;13.77;6.57;;;12.30;59.50;;;;;;5047224;28;20190;-70
2021/03/27 00:34:38;;;;;;;9.55;6.10;;;12.30;59.80;;;;;;5048779;28;20119;-71
2021/03/27 00:37:13;;;;;;;13.32;6.43;;;12.30;59.90;;;;;;5041846;28;20832;-71
2021/03/27 00:39:48;;;;;;;14.18;6.68;;;12.50;60.40;;;;;;5047647;28;20488;-71
2021/03/27 00:42:28;;;;;;;13.10;7.07;;;12.50;59.50;;;;;;5045716;28;20063;-71
2021/03/27 00:44:58;;;;;;;10.82;6.47;;;12.50;59.80;;;;;;5045657;28;20077;-71
2021/03/27 00:47:52;;;;;;;16.70;7.30;;;12.50;59.90;;;;;;5045128;28;20110;-71
2021/03/27 00:50:39;;;;;;;16.02;7.15;;;12.40;60.80;;;;;;5047241;28;20386;-71
2021/03/27 00:53:21;;;;;;;11.35;7.00;;;12.20;61.00;;;;;;5072555;28;20079;-71
2021/03/27 00:56:02;;;;;;;12.32;6.75;;;12.30;61.20;;;;;;5046924;28;20049;-70
2021/03/27 00:58:46;;;;;;;16.33;6.97;;;12.20;61.50;;;;;;5044200;28;20049;-72
2021/03/27 01:01:14;;;;;;;11.40;7.22;;;12.30;61.90;;;;;;5038384;28;20447;-70
2021/03/27 01:03:48;;;;;;;14.35;6.90;;;12.20;61.60;;;;;;5044550;28;20052;-70
2021/03/27 01:06:23;;;;;;;20.13;6.97;;;12.10;61.80;;;;;;5044996;28;20084;-71
2021/03/27 01:08:52;;;;;;;10.60;6.47;;;12.20;61.80;;;;;;5047629;28;20053;-71
2021/03/27 01:11:24;;;;;;;12.45;6.60;;;12.20;61.90;;;;;;5045391;28;20103;-70
2021/03/27 01:13:54;;;;;;;11.90;6.70;;;12.40;61.70;;;;;;5044388;28;20468;-71
2021/03/27 01:16:28;;;;;;;10.50;6.15;;;12.40;61.50;;;;;;5046605;28;20091;-70
2021/03/27 01:19:18;;;;;;;14.88;7.43;;;12.40;61.70;;;;;;5046421;28;20128;-70
2021/03/27 01:21:46;;;;;;;12.57;5.78;;;12.20;62.10;;;;;;5046394;28;20056;-71
2021/03/27 01:24:17;;;;;;;12.32;6.50;;;12.20;62.30;;;;;;5046252;28;20118;-70
2021/03/27 01:26:48;;;;;;;;;;;12.20;62.30;;;;;;5046263;28;20080;-71
2021/03/27 01:29:24;;;;;;;12.10;5.93;;;12.30;62.20;;;;;;5045731;28;19935;-70
2021/03/27 01:32:25;;;;;;;15.82;6.85;;;12.20;62.90;;;;;;5044446;28;20056;-70
2021/03/27 01:35:07;;;;;;;12.55;6.57;;;12.20;62.70;;;;;;5046957;28;20484;-71
2021/03/27 01:37:55;;;;;;;10.32;6.20;;;12.10;62.80;;;;;;5046492;28;20080;-70
2021/03/27 01:40:41;;;;;;;11.27;6.07;;;12.20;62.70;;;;;;5040797;28;20045;-70
2021/03/27 01:43:33;;;;;;;13.85;6.50;;;12.20;62.60;;;;;;5038931;28;20131;-71
2021/03/27 01:46:21;;;;;;;12.10;6.50;;;12.10;62.90;;;;;;5040097;28;20489;-70
2021/03/27 01:49:21;;;;;;;16.35;5.95;;;12.10;63.20;;;;;;5048399;28;20072;-71
2021/03/27 01:52:11;;;;;;;8.90;6.28;;;12.10;63.40;;;;;;5045102;28;20053;-70
2021/03/27 01:54:55;;;;;;;9.50;6.00;;;12.00;63.80;;;;;;5046018;28;20396;-70
2021/03/27 01:57:48;;;;;;;13.75;6.25;;;12.10;64.10;;;;;;5051892;28;20048;-70
2021/03/27 02:00:35;;;;;;;11.73;5.97;;;12.10;64.60;;;;;;5048962;28;20087;-71
2021/03/27 02:03:23;;;;;;;12.70;5.72;;;12.10;64.30;;;;;;5038274;28;20128;-70
2021/03/27 02:06:11;;;;;;;9.65;5.85;;;12.10;64.30;;;;;;5035973;28;20049;-70
2021/03/27 02:09:14;;;;;;;11.35;5.97;;;12.30;63.90;;;;;;5041147;28;20045;-70
2021/03/27 02:11:58;;;;;;;8.30;5.38;;;12.30;64.70;;;;;;5040022;28;20075;-70
2021/03/27 02:14:49;;;;;;;9.73;5.28;;;12.30;64.40;;;;;;5051380;28;20040;-71
2021/03/27 02:17:25;;;;;;;10.38;5.53;;;12.30;64.60;;;;;;5041920;28;20069;-71
2021/03/27 02:20:25;;;;;;;11.82;5.85;;;12.30;65.00;;;;;;5046514;28;20037;-70
2021/03/27 02:23:25;;;;;;;9.07;5.07;;;12.20;65.40;;;;;;5045728;28;20052;-70
2021/03/27 02:26:08;;;;;;;11.35;5.93;;;12.30;67.10;;;;;;5046488;28;20068;-70
2021/03/27 02:29:27;;;;;;;9.60;5.25;;;11.80;71.90;;;;;;5039652;28;20107;-70
2021/03/27 02:32:17;;;;;;;8.95;4.22;;;11.00;83.90;;;;;;5037494;28;20049;-70
2021/03/27 02:34:52;;;;;;;12.18;4.25;;;10.70;97.30;;;;;;5038024;28;20057;-71
2021/03/27 02:37:34;;;;;;;8.30;4.85;;;10.70;99.80;;;;;;5045444;28;20052;-70
2021/03/27 02:40:06;;;;;;;9.18;5.45;;;10.80;99.90;;;;;;5042215;28;20492;-72
2021/03/27 02:42:59;;;;;;;8.13;4.82;;;10.90;99.90;;;;;;5040261;28;20053;-71
2021/03/27 02:45:51;;;;;;;6.00;4.00;;;11.10;97.50;;;;;;5042274;28;20076;-71
2021/03/27 02:48:29;;;;;;;6.65;3.95;;;11.30;96.00;;;;;;5050587;28;20496;-70
2021/03/27 02:51:14;;;;;;;6.03;3.90;;;11.40;94.90;;;;;;5033229;28;20053;-70
2021/03/27 02:53:55;;;;;;;9.10;3.90;;;11.40;94.30;;;;;;5045822;28;20115;-70
2021/03/27 02:56:59;;;;;;;4.32;2.92;;;11.40;93.90;;;;;;5035517;28;20050;-70
2021/03/27 02:59:38;;;;;;;4.63;3.00;;;11.40;92.60;;;;;;5030953;28;20095;-71
2021/03/27 03:02:26;;;;;;;5.47;2.33;;;11.40;91.60;;;;;;5039826;28;20053;-71
2021/03/27 03:04:58;;;;;;;4.90;2.45;;;11.40;90.30;;;;;;5036246;28;20061;-71
2021/03/27 03:07:46;;;;;;;5.05;2.80;;;11.40;89.70;;;;;;5036641;28;20543;-71
2021/03/27 03:10:32;;;;;;;4.50;2.72;;;11.40;88.20;;;;;;5043682;28;20156;-71
2021/03/27 03:13:17;;;;;;;6.30;2.65;;;11.30;89.30;;;;;;5041375;28;20383;-70
2021/03/27 03:15:49;;;;;;;4.00;2.97;;;11.30;88.30;;;;;;5045481;28;20045;-70
2021/03/27 03:18:31;;;;;;;5.03;3.00;;;11.30;86.90;;;;;;5042267;28;20049;-71
2021/03/27 03:21:06;;;;;;;9.27;3.20;;;11.20;88.60;;;;;;5034407;28;22073;-70
2021/03/27 03:23:56;;;;;;;6.30;2.40;;;11.30;86.70;;;;;;5049228;28;20087;-70
2021/03/27 03:26:40;;;;;;;6.15;2.88;;;11.30;85.70;;;;;;5044740;28;20072;-70
2021/03/27 03:29:33;;;;;;;3.75;1.98;;;11.30;85.60;;;;;;5044430;28;20045;-71
2021/03/27 03:32:20;;;;;;;3.40;2.05;;;11.40;78.40;;;;;;5034968;28;20087;-70
2021/03/27 03:35:27;;;;;;;3.88;2.05;;;11.40;79.80;;;;;;5051381;28;20056;-70
2021/03/27 03:37:59;;;;;;;6.60;2.40;;;11.30;80.60;;;;;;5038597;28;20053;-70
2021/03/27 03:40:45;;;;;;;4.32;2.00;;;11.20;81.90;;;;;;5036184;28;20133;-71
2021/03/27 03:43:33;;;;;;;3.28;1.77;;;11.10;80.40;;;;;;5047903;28;20503;-70
2021/03/27 03:46:26;;;;;;;2.33;1.45;;;11.00;78.10;;;;;;5044443;28;20110;-71
2021/03/27 03:49:20;;;;;;;2.80;1.45;;;11.00;75.80;;;;;;5038201;28;20067;-70
2021/03/27 03:51:46;;;;;;;2.95;1.70;;;11.00;76.60;;;;;;5035555;28;20103;-70
2021/03/27 03:54:37;;;;;;;1.92;1.23;;;10.90;74.20;;;;;;5042092;28;20520;-70
2021/03/27 03:57:19;;;;;;;1.55;1.00;;;10.90;74.10;;;;;;5045807;28;20489;-70
2021/03/27 03:59:52;;;;;;;9.07;0.60;;;10.80;71.70;;;;;;5048928;28;20048;-70
2021/03/27 04:02:43;;;;;;;1.65;0.80;;;10.60;70.10;;;;;;5038714;28;20072;-70
2021/03/27 04:05:28;;;;;;;0.63;0.60;;;10.60;71.10;;;;;;5041597;28;20049;-70
2021/03/27 04:08:29;;;;;;;2.35;0.60;;;10.40;72.40;;;;;;5046858;28;20183;-71
2021/03/27 04:11:00;;;;;;;0.60;0.60;;;10.30;72.70;;;;;;5044355;28;20147;-72
2021/03/27 04:13:37;;;;;;;2.25;0.70;;;10.20;72.20;;;;;;5046033;28;20048;-70
2021/03/27 04:16:14;;;;;;;1.13;0.90;;;10.10;72.80;;;;;;5040315;28;20091;-70
2021/03/27 04:18:55;;;;;;;1.08;0.90;;;10.00;74.40;;;;;;5039322;28;20046;-71
2021/03/27 04:21:30;;;;;;;1.80;0.80;;;9.90;75.70;;;;;;5041785;28;20072;-71
2021/03/27 04:24:04;;;;;;;1.50;0.60;;;9.90;76.00;;;;;;5035389;28;20099;-70
2021/03/27 04:26:34;;;;;;;1.10;0.47;;;9.80;75.20;;;;;;5048094;28;20057;-70
2021/03/27 04:29:28;;;;;;;0.50;0.50;;;9.70;75.20;;;;;;5037817;28;20138;-70
2021/03/27 04:32:24;;;;;;;0.65;0.50;;;9.70;74.50;;;;;;5037210;28;20049;-71
2021/03/27 04:35:35;;;;;;;0.40;0.40;;;9.60;74.20;;;;;;5048659;28;20135;-70
2021/03/27 04:38:16;;;;;;;1.38;0.50;;;9.60;72.70;;;;;;5024380;28;20049;-70
2021/03/27 04:41:10;;;;;;;0.55;0.55;;;9.60;72.00;;;;;;5022748;28;20080;-70
2021/03/27 04:43:47;;;;;;;0.50;0.50;;;9.40;72.80;;;;;;5042906;28;20135;-70
2021/03/27 04:46:28;;;;;;;0.45;0.45;;;9.40;72.30;;;;;;5041439;28;20088;-70
2021/03/27 04:49:10;;;;;;;0.43;0.40;;;9.30;72.20;;;;;;5040653;28;20041;-71
2021/03/27 04:51:47;;;;;;;2.05;0.50;;;9.20;71.30;;;;;;5041672;28;20053;-71
2021/03/27 04:54:33;;;;;;;1.77;0.50;;;9.20;71.10;;;;;;5037304;28;20540;-71
2021/03/27 04:57:38;;;;;;;0.68;0.55;;;9.10;70.80;;;;;;5043747;28;20122;-71
2021/03/27 05:00:23;;;;;;;1.20;0.57;;;9.10;71.20;;;;;;5066717;28;20124;-70
2021/03/27 05:03:02;;;;;;;1.58;0.70;;;9.00;72.30;;;;;;5042005;28;20049;-70
2021/03/27 05:06:10;;;;;;;1.30;0.40;;;8.90;72.40;;;;;;5040739;28;20487;-70
2021/03/27 05:08:59;;;;;;;0.45;0.45;;;8.80;71.20;;;;;;5029588;28;20103;-71
2021/03/27 05:11:54;;;;;;;0.87;0.50;;;8.80;71.80;;;;;;5040769;28;20424;-70
2021/03/27 05:14:40;;;;;;;0.60;0.50;;;8.80;70.70;;;;;;5036551;28;21031;-70
2021/03/27 05:17:26;;;;;;;1.48;0.65;;;8.80;71.10;;;;;;5041136;28;20087;-70
2021/03/27 05:20:14;;;;;;;2.03;0.70;;;8.80;70.70;;;;;;5044335;28;20115;-70
2021/03/27 05:23:04;;;;;;;2.22;0.85;;;8.80;71.50;;;;;;5045812;28;20041;-71
2021/03/27 05:26:10;;;;;;;1.83;0.70;;;8.70;70.60;;;;;;5050217;28;20132;-71
2021/03/27 05:29:10;;;;;;;1.75;0.90;;;8.80;70.30;;;;;;5038164;28;20042;-71
2021/03/27 05:32:05;;;;;;;1.80;0.73;;;8.90;70.20;;;;;;5044872;28;20514;-71
2021/03/27 05:34:52;;;;;;;3.53;0.80;;;8.90;69.10;;;;;;4993508;28;20046;-70
2021/03/27 05:37:41;;;;;;;0.98;0.80;;;9.00;69.30;;;;;;5041325;28;20077;-70
2021/03/27 05:40:25;;;;;;;1.15;0.98;;;8.90;69.30;;;;;;5075407;28;20080;-70
2021/03/27 05:43:32;;;;;;;2.00;0.85;;;8.90;69.30;;;;;;5044368;28;20780;-70
2021/03/27 05:46:29;;;;;;;2.33;1.10;;;8.90;69.60;;;;;;5071167;28;20076;-71
2021/03/27 05:49:14;;;;;;;1.17;0.85;;;8.90;68.80;;;;;;5043214;28;20057;-70
2021/03/27 05:52:05;;;;;;;3.17;1.10;;;8.70;67.30;;;;;;5042737;28;20048;-70
2021/03/27 05:54:38;;;;;;;1.80;1.10;;;8.70;68.10;;;;;;5036002;28;20117;-71
2021/03/27 05:57:25;;;;;;;2.72;1.25;;;9.00;67.80;;;;;;5053336;28;20103;-70
2021/03/27 06:00:13;;;;;;;1.30;1.20;;;9.00;66.80;;;;;;5042407;28;20496;-71
2021/03/27 06:03:04;;;;;;;5.45;1.23;;;8.90;66.80;;;;;;5044856;28;20049;-70
2021/03/27 06:05:43;;;;;;;2.45;1.10;;;8.80;67.70;;;;;;5036458;28;20132;-71
2021/03/27 06:08:27;;;;;;;3.05;1.40;;;8.80;67.40;;;;;;5046829;28;20048;-71
2021/03/27 06:11:20;;;;;;;3.17;1.10;;;8.80;68.10;;;;;;5042691;28;20049;-71
2021/03/27 06:14:01;;;;;;;1.58;1.30;;;9.10;67.60;;;;;;5044479;28;20048;-71
2021/03/27 06:16:36;;;;;;;1.58;1.25;;;9.30;67.60;;;;;;5039417;28;20190;-70
2021/03/27 06:19:21;;;;;;;2.00;1.33;;;9.30;66.70;;;;;;5044331;28;20102;-71
2021/03/27 06:22:16;;;;;;;2.78;1.42;;;8.90;67.30;;;;;;5044709;28;20222;-71
2021/03/27 06:25:06;;;;;;;4.78;1.80;;;9.10;67.50;;;;;;5045660;28;20080;-71
2021/03/27 06:28:02;;;;;;;3.95;1.90;;;8.90;67.90;;;;;;5046831;28;20183;-72
2021/03/27 06:31:08;;;;;;;3.45;1.80;;;8.90;67.30;;;;;;5040927;28;20202;-72
2021/03/27 06:34:15;;;;;;;4.60;1.90;;;9.00;66.80;;;;;;5048618;28;20064;-70
2021/03/27 06:37:13;;;;;;;5.65;1.50;;;9.00;64.60;;;;;;5047591;28;20076;-71
2021/03/27 06:40:16;;;;;;;4.00;1.60;;;9.10;65.00;;;;;;5045458;28;20041;-72
2021/03/27 06:43:11;;;;;;;3.38;1.38;;;9.00;63.20;;;;;;5036329;28;20444;-71
2021/03/27 06:45:49;;;;;;;2.67;1.15;;;9.00;62.40;;;;;;5045624;28;20042;-69
2021/03/27 06:48:18;;;;;;;1.92;1.08;;;8.90;61.90;;;;;;5046489;28;20087;-72
2021/03/27 06:51:23;;;;;;;4.65;1.20;;;9.00;62.70;;;;;;5040004;28;20064;-72
2021/03/27 06:54:01;;;;;;;5.82;1.20;;;8.90;62.40;;;;;;5043908;28;20064;-72
2021/03/27 06:56:42;;;;;;;3.38;1.00;;;9.10;62.80;;;;;;5038954;28;20081;-72
2021/03/27 06:59:34;;;;;;;3.65;0.95;;;9.50;61.40;;;;;;5043796;28;20476;-72
2021/03/27 07:02:21;;;;;;;2.63;1.00;;;9.20;60.60;;;;;;5042872;28;20045;-72
2021/03/27 07:05:28;;;;;;;8.00;0.80;;;9.10;61.50;;;;;;5049358;28;20110;-71
2021/03/27 07:08:05;;;;;;;3.50;0.90;;;9.40;60.30;;;;;;5040662;28;20128;-72
2021/03/27 07:11:02;;;;;;;2.90;0.90;;;9.30;61.00;;;;;;5040478;28;20190;-71
2021/03/27 07:13:38;;;;;;;2.67;0.65;;;9.30;60.70;;;;;;5035389;28;20068;-72
2021/03/27 07:16:51;;;;;;;1.58;0.90;;;9.10;60.60;;;;;;5042183;28;20104;-72
2021/03/27 07:20:07;;;;;;;2.17;0.98;;;9.10;60.50;;;;;;5019371;28;20041;-72
2021/03/27 07:23:03;;;;;;;3.53;0.77;;;9.20;60.10;;;;;;5046560;28;20037;-71
2021/03/27 07:25:36;;;;;;;3.08;0.90;;;9.20;61.00;;;;;;5058793;28;20147;-72
2021/03/27 07:28:08;;;;;;;1.88;0.88;;;9.20;60.40;;;;;;5042248;28;20213;-73
2021/03/27 07:30:45;;;;;;;2.88;0.88;;;9.60;59.50;;;;;;5045845;28;20136;-72
2021/03/27 07:33:26;;;;;;;5.93;0.68;;;9.50;58.40;;;;;;5048177;28;20084;-72
2021/03/27 07:36:23;;;;;;;1.90;0.80;;;9.30;58.60;;;;;;5042488;28;20045;-71
2021/03/27 07:39:06;;;;;;;5.57;1.00;;;9.30;58.00;;;;;;5041911;28;20052;-72
2021/03/27 07:41:54;;;;;;;5.93;1.13;;;9.20;58.10;;;;;;5038153;28;20426;-73
2021/03/27 07:44:39;;;;;;;5.22;1.00;;;9.20;58.10;;;;;;5049127;28;20072;-71
2021/03/27 07:47:13;;;;;;;3.58;1.00;;;9.20;57.80;;;;;;5047977;28;20122;-71
2021/03/27 07:50:01;;;;;;;4.15;1.38;;;9.30;58.50;;;;;;5031123;28;20055;-74
2021/03/27 07:52:42;;;;;;;6.35;1.08;;;9.30;58.60;;;;;;5033794;28;20443;-72
2021/03/27 07:55:36;;;;;;;1.90;0.90;;;9.40;58.90;;;;;;5046859;28;20123;-73
2021/03/27 07:58:32;;;;;;;4.40;0.85;;;9.20;58.10;;;;;;5046301;28;20366;-72
2021/03/27 08:01:04;;;;;;;7.18;1.60;;;9.30;58.00;;;;;;5034146;28;20083;-72
2021/03/27 08:03:55;;;;;;;2.95;1.10;;;9.20;58.10;;;;;;5044734;28;20068;-72
2021/03/27 08:06:49;;;;;;;4.00;1.00;;;9.20;58.30;;;;;;5042447;28;20105;-73
2021/03/27 08:09:50;;;;;;;3.33;1.00;;;9.50;56.80;;;;;;5041019;28;20048;-72
2021/03/27 08:12:31;;;;;;;5.20;0.80;;;9.30;56.90;;;;;;5032524;28;20136;-73
2021/03/27 08:15:22;;;;;;;5.80;1.10;;;9.50;55.90;;;;;;5043082;28;20053;-72
2021/03/27 08:18:12;;;;;;;2.67;0.82;;;9.70;54.40;;;;;;5044688;28;20090;-73
2021/03/27 08:20:56;;;;;;;2.15;0.90;;;9.80;54.40;;;;;;5043307;28;20073;-72
2021/03/27 08:24:06;;;;;;;2.05;0.90;;;9.60;55.00;;;;;;5068165;28;20049;-72
2021/03/27 08:26:51;;;;;;;3.28;0.98;;;9.40;55.40;;;;;;5038060;28;20055;-73
2021/03/27 08:29:43;;;;;;;3.25;0.80;;;10.00;54.60;;;;;;5043595;28;20059;-74
2021/03/27 08:32:28;;;;;;;2.70;1.17;;;10.20;53.60;;;;;;5043702;28;20934;-73
2021/03/27 08:35:09;;;;;;;3.45;1.17;;;10.30;53.80;;;;;;5045665;28;20055;-74
2021/03/27 08:38:08;;;;;;;4.80;1.20;;;10.60;52.70;;;;;;5043206;28;20060;-73
2021/03/27 08:40:56;;;;;;;1.67;0.80;;;10.80;52.40;;;;;;5041903;28;20053;-73
2021/03/27 08:43:34;;;;;;;5.15;0.98;;;11.50;50.60;;;;;;5045875;28;20053;-73
2021/03/27 08:46:42;;;;;;;5.20;1.05;;;11.60;51.10;;;;;;5040420;28;20421;-73
2021/03/27 08:49:39;;;;;;;2.65;0.65;;;11.60;50.50;;;;;;5044447;28;20053;-74
2021/03/27 08:52:32;;;;;;;3.80;0.77;;;10.80;51.30;;;;;;5038230;28;20107;-71
2021/03/27 08:55:32;;;;;;;3.95;1.23;;;10.70;51.60;;;;;;5025966;28;20411;-72
2021/03/27 08:58:17;;;;;;;5.70;1.20;;;11.00;51.90;;;;;;5045831;28;20123;-72
2021/03/27 09:01:19;;;;;;;4.80;1.02;;;11.40;50.90;;;;;;5048237;28;20109;-72
2021/03/27 09:04:17;;;;;;;3.88;0.70;;;11.60;50.80;;;;;;5050956;28;20049;-72
2021/03/27 09:07:00;;;;;;;3.20;0.90;;;11.60;50.60;;;;;;5044716;28;20048;-71
2021/03/27 09:10:30;;;;;;;2.33;1.10;;;11.10;50.70;;;;;;5074168;28;20552;-73
2021/03/27 09:13:21;;;;;;;7.10;1.05;;;11.00;51.90;;;;;;5004020;28;20505;-74
2021/03/27 09:16:11;;;;;;;2.25;0.63;;;11.30;51.40;;;;;;5050459;28;20048;-72
2021/03/27 09:18:43;;;;;;;3.55;0.93;;;11.10;51.00;;;;;;5045505;28;20049;-73
2021/03/27 09:21:34;;;;;;;4.50;0.90;;;11.70;50.80;;;;;;5047756;28;20087;-72
2021/03/27 09:24:31;;;;;;;5.68;1.10;;;11.30;50.60;;;;;;5046260;28;20052;-73
2021/03/27 09:27:19;;;;;;;1.70;0.70;;;11.70;49.00;;;;;;5048284;28;20082;-70
2021/03/27 09:29:55;;;;;;;3.20;0.77;;;12.30;47.80;;;;;;5047389;28;20892;-72
2021/03/27 09:32:47;;;;;;;4.70;1.20;;;13.00;47.10;;;;;;5049818;28;20064;-72
2021/03/27 09:35:26;;;;;;;5.13;1.00;;;13.30;47.10;;;;;;5076139;28;20067;-72
2021/03/27 09:38:14;;;;;;;3.85;0.73;;;12.60;46.90;;;;;;5047902;28;20053;-74
2021/03/27 09:41:00;;;;;;;5.53;0.80;;;12.10;47.60;;;;;;5051554;28;20488;-73
2021/03/27 09:44:12;;;;;;;6.82;0.95;;;12.60;46.40;;;;;;5046932;28;20056;-73
2021/03/27 09:47:04;;;;;;;3.38;1.02;;;14.30;44.30;;;;;;5048448;28;20087;-73
2021/03/27 09:49:56;;;;;;;3.03;0.93;;;14.60;42.60;;;;;;5045900;28;20218;-72
2021/03/27 09:52:50;;;;;;;6.03;0.80;;;13.50;43.40;;;;;;5049639;28;20048;-72
2021/03/27 09:55:34;;;;;;;4.72;0.98;;;14.10;42.70;;;;;;5050778;28;20352;-73
2021/03/27 09:58:17;;;;;;;3.25;0.65;;;12.20;46.10;;;;;;5049626;28;21996;-73
2021/03/27 10:00:47;;;;;;;3.78;0.80;;;11.80;47.30;;;;;;5049479;28;20056;-71
2021/03/27 10:03:16;;;;;;;4.75;0.98;;;12.10;47.10;;;;;;5047629;28;20581;-73
2021/03/27 10:05:55;;;;;;;4.68;1.33;;;11.90;46.80;;;;;;5048803;28;20063;-74
2021/03/27 10:08:31;;;;;;;4.75;1.60;;;12.50;46.80;;;;;;5049757;28;20408;-73
2021/03/27 10:11:10;;;;;;;4.82;1.00;;;12.00;45.30;;;;;;5041960;28;20154;-73
2021/03/27 10:14:05;;;;;;;5.45;0.80;;;12.30;45.70;;;;;;5050105;28;20052;-73
2021/03/27 10:16:43;;;;;;;8.95;1.40;;;11.90;45.70;;;;;;5047685;28;20055;-73
2021/03/27 10:19:12;;;;;;;2.90;0.95;;;12.00;46.00;;;;;;5046719;28;20106;-74
2021/03/27 10:21:47;;;;;;;;;;;12.30;45.90;;;;;;5049301;28;20057;-72
2021/03/27 10:24:33;;;;;;;8.30;1.25;;;12.20;46.20;;;;;;5049027;28;19928;-75
2021/03/27 10:27:36;;;;;;;6.47;1.25;;;11.90;46.50;;;;;;5050542;28;20052;-74
2021/03/27 10:30:15;;;;;;;4.47;0.80;;;12.20;46.90;;;;;;5050519;28;20053;-75
2021/03/27 10:33:00;;;;;;;3.80;1.10;;;12.80;45.20;;;;;;5047740;28;20515;-74
2021/03/27 10:35:45;;;;;;;2.65;0.82;;;12.20;44.90;;;;;;5047230;28;20049;-73
2021/03/27 10:38:30;;;;;;;6.32;0.98;;;12.30;45.10;;;;;;5047690;28;20520;-74
2021/03/27 10:41:05;;;;;;;4.85;0.85;;;12.10;45.80;;;;;;5047372;28;20139;-74
2021/03/27 10:43:47;;;;;;;4.15;1.08;;;11.90;46.00;;;;;;5047189;28;20631;-74
2021/03/27 10:46:39;;;;;;;4.25;0.82;;;11.90;45.80;;;;;;5048010;28;20057;-72
2021/03/27 10:49:37;;;;;;;2.05;0.60;;;12.00;47.50;;;;;;5047543;28;20049;-75
2021/03/27 10:52:23;;;;;;;3.45;0.75;;;12.50;44.60;;;;;;5049876;28;20053;-74
2021/03/27 10:54:56;;;;;;;1.25;0.70;;;12.10;45.60;;;;;;5047639;28;20049;-76
2021/03/27 10:57:59;;;;;;;6.95;1.00;;;12.00;45.60;;;;;;5048113;28;20080;-75
2021/03/27 11:01:03;;;;;;;7.47;1.25;;;11.90;45.80;;;;;;5049606;28;20049;-74
2021/03/27 11:03:54;;;;;;;4.28;1.08;;;12.10;45.70;;;;;;5044171;28;20084;-74
2021/03/27 11:06:24;;;;;;;6.03;0.95;;;12.40;45.60;;;;;;5044455;28;20048;-75
2021/03/27 11:09:12;;;;;;;5.47;1.08;;;12.90;44.40;;;;;;5044242;28;20400;-74
2021/03/27 11:11:45;;;;;;;5.28;1.00;;;12.50;44.40;;;;;;5049257;28;20095;-75
2021/03/27 11:14:46;;;;;;;4.35;1.00;;;12.50;44.70;;;;;;5046830;28;20085;-74
2021/03/27 11:17:31;;;;;;;4.25;0.98;;;12.90;44.20;;;;;;5062639;28;20057;-75
2021/03/27 11:20:28;;;;;;;6.93;2.58;;;12.70;44.60;;;;;;5047478;28;20064;-76
2021/03/27 11:23:16;;;;;;;3.67;0.70;;;12.10;45.10;;;;;;5049220;28;20121;-75
2021/03/27 11:26:05;;;;;;;14.48;1.60;;;11.50;48.30;;;;;;5045704;28;20055;-75
2021/03/27 11:28:38;;;;;;;8.00;1.48;;;11.50;53.30;;;;;;5047585;28;20129;-74
2021/03/27 11:31:08;;;;;;;4.10;1.05;;;11.90;53.30;;;;;;5046738;28;20133;-74
2021/03/27 11:34:00;;;;;;;4.72;1.35;;;11.90;52.40;;;;;;5045141;28;20068;-73
2021/03/27 11:37:04;;;;;;;2.88;0.73;;;11.50;49.70;;;;;;5041517;28;20056;-72
2021/03/27 11:39:45;;;;;;;5.47;1.27;;;11.50;47.80;;;;;;5046354;28;20076;-72
2021/03/27 11:42:43;;;;;;;1.35;0.70;;;11.70;48.10;;;;;;5042583;28;20065;-72
2021/03/27 11:45:32;;;;;;;3.38;0.60;;;11.20;49.00;;;;;;5046835;28;20061;-74
2021/03/27 11:48:05;;;;;;;2.75;0.80;;;10.90;51.40;;;;;;5044700;28;20060;-72
2021/03/27 11:50:50;;;;;;;1.67;0.70;;;13.60;48.80;;;;;;5045247;28;20088;-72
2021/03/27 11:53:35;;;;;;;2.55;0.70;;;11.60;50.70;;;;;;5047854;28;20131;-71
2021/03/27 11:56:22;;;;;;;3.00;0.75;;;11.60;51.30;;;;;;5046110;28;20048;-72
2021/03/27 12:03:04;;;;;;;2.67;0.88;;;10.80;53.20;;;;;;5000293;28;20581;-72
2021/03/27 12:05:43;;;;;;;;;;;10.90;53.50;;;;;;5040219;28;20473;-74
2021/03/27 12:08:15;;;;;;;5.45;0.85;;;10.80;53.30;;;;;;5045224;28;19920;-73
2021/03/27 12:11:03;;;;;;;2.88;0.90;;;11.10;53.40;;;;;;5046699;28;20049;-73
2021/03/27 12:13:56;;;;;;;2.53;0.60;;;11.10;53.40;;;;;;5045127;28;20071;-74
2021/03/27 12:16:30;;;;;;;2.30;0.70;;;11.90;52.80;;;;;;5038814;28;20045;-75
2021/03/27 12:19:10;;;;;;;3.17;0.88;;;12.00;53.20;;;;;;5042391;28;20178;-80
2021/03/27 12:21:57;;;;;;;5.68;0.85;;;12.40;52.60;;;;;;5062593;28;20053;-73
2021/03/27 12:24:30;;;;;;;2.65;0.70;;;12.40;51.30;;;;;;5039785;28;20057;-73
2021/03/27 12:27:15;;;;;;;1.20;0.60;;;12.50;50.30;;;;;;5044875;28;20920;-74
2021/03/27 12:29:46;;;;;;;4.22;1.00;;;12.30;49.40;;;;;;5045095;28;20539;-75
2021/03/27 12:32:16;;;;;;;4.13;1.17;;;12.80;49.10;;;;;;5040353;28;20048;-74
2021/03/27 12:35:10;;;;;;;2.10;0.93;;;13.80;48.50;;;;;;5043167;28;20103;-73
2021/03/27 12:37:41;;;;;;;4.03;0.70;;;14.40;47.50;;;;;;5043086;28;20126;-73
2021/03/27 12:40:19;;;;;;;4.97;0.90;;;15.20;46.50;;;;;;5044624;28;20055;-73
2021/03/27 12:43:11;;;;;;;4.53;1.08;;;15.20;45.40;;;;;;5040653;28;20049;-73
2021/03/27 12:45:44;;;;;;;1.50;0.73;;;14.90;46.00;;;;;;5045416;28;20053;-74
2021/03/27 12:48:49;;;;;;;4.80;1.00;;;15.10;45.70;;;;;;5032435;28;20052;-73
2021/03/27 12:51:36;;;;;;;3.45;0.90;;;15.50;44.50;;;;;;4996710;28;20084;-74
2021/03/27 12:54:41;;;;;;;2.75;0.88;;;15.60;43.50;;;;;;5036696;28;20052;-73
2021/03/27 12:57:16;;;;;;;5.43;1.13;;;15.70;43.10;;;;;;5042131;28;20576;-73
2021/03/27 13:00:02;;;;;;;3.72;1.17;;;15.30;43.80;;;;;;5034207;28;20119;-74
2021/03/27 13:02:48;;;;;;;4.18;0.90;;;16.70;42.20;;;;;;5039546;28;20076;-72
2021/03/27 13:05:34;;;;;;;2.35;0.80;;;15.80;41.30;;;;;;5038221;28;20441;-73
2021/03/27 13:08:39;;;;;;;7.25;1.55;;;15.50;42.10;;;;;;5036478;28;20045;-73
2021/03/27 13:11:26;;;;;;;3.63;0.85;;;16.20;41.50;;;;;;5037575;28;20146;-74
2021/03/27 13:14:14;;;;;;;1.55;0.82;;;16.00;40.40;;;;;;5039326;28;20094;-74
2021/03/27 13:16:44;;;;;;;2.42;0.80;;;15.90;42.10;;;;;;5034373;28;20145;-74
2021/03/27 13:19:34;;;;;;;2.35;0.90;;;15.50;42.90;;;;;;5032262;28;20062;-75
2021/03/27 13:22:23;;;;;;;6.43;1.60;;;14.60;43.70;;;;;;5049529;28;20052;-74
2021/03/27 13:25:09;;;;;;;3.75;1.30;;;13.20;45.90;;;;;;5042004;28;20056;-75
2021/03/27 13:27:49;;;;;;;2.55;0.80;;;13.30;45.40;;;;;;5044798;28;20755;-73
2021/03/27 13:30:33;;;;;;;7.22;1.00;;;14.00;45.40;;;;;;5043745;28;20419;-73
2021/03/27 13:33:36;;;;;;;3.65;0.80;;;14.50;43.30;;;;;;5041974;28;20055;-74
2021/03/27 13:36:23;;;;;;;10.45;1.15;;;13.80;45.00;;;;;;5035924;28;20083;-74
2021/03/27 13:38:56;;;;;;;4.00;1.60;;;13.50;45.70;;;;;;5038504;28;20557;-73
2021/03/27 13:41:53;;;;;;;6.72;1.77;;;13.90;46.30;;;;;;5037483;28;20057;-74
2021/03/27 13:44:40;;;;;;;6.82;2.40;;;13.30;46.50;;;;;;5044940;28;20076;-71
2021/03/27 13:47:31;;;;;;;7.43;2.33;;;12.60;46.60;;;;;;5045941;28;20056;-71
2021/03/27 13:50:16;;;;;;;6.72;2.58;;;12.50;46.60;;;;;;5074129;28;20049;-72
2021/03/27 13:53:10;;;;;;;5.65;2.05;;;12.60;47.00;;;;;;5042428;28;20049;-73
2021/03/27 13:56:24;;;;;;;11.52;2.63;;;11.90;48.10;;;;;;5044455;28;20037;-72
2021/03/27 13:59:05;;;;;;;6.80;1.98;;;11.90;49.70;;;;;;5008801;28;20081;-72
2021/03/27 14:02:02;;;;;;;6.70;1.63;;;12.10;50.20;;;;;;5043980;28;20116;-72
2021/03/27 14:04:38;;;;;;;8.30;2.17;;;11.40;51.90;;;;;;5044080;28;20103;-73
2021/03/27 14:07:42;;;;;;;5.88;1.70;;;10.00;58.50;;;;;;5044034;28;20107;-74
2021/03/27 14:10:37;;;;;;;7.70;1.90;;;10.00;58.60;;;;;;5040261;28;20053;-73
2021/03/27 14:13:16;;;;;;;9.10;1.98;;;10.30;57.30;;;;;;5040373;28;20139;-74
2021/03/27 14:15:58;;;;;;;7.13;1.98;;;10.90;59.90;;;;;;5048052;28;20042;-73
2021/03/27 14:18:34;;;;;;;5.43;1.77;;;10.60;60.20;;;;;;5043762;28;20095;-73
2021/03/27 14:21:15;;;;;;;6.10;1.95;;;10.80;62.30;;;;;;5046989;28;20057;-73
2021/03/27 14:24:32;;;;;;;10.68;2.10;;;10.80;61.20;;;;;;5050677;28;20045;-73
2021/03/27 14:27:26;;;;;;;12.90;1.98;;;10.70;61.00;;;;;;5035664;28;20136;-72
2021/03/27 14:30:14;;;;;;;10.82;2.30;;;11.10;62.10;;;;;;5036189;28;20139;-73